createdAt,value
2023-11-23T00:02:06.224Z,101949.19
2023-11-23T00:07:05.395Z,101960.56
2023-11-23T00:12:02.126Z,101962.28
2023-11-23T00:17:00.187Z,101977.81
2023-11-23T00:21:57.672Z,101956.13
2023-11-23T00:26:54.478Z,101981.34
2023-11-23T00:31:51.569Z,101976.94
2023-11-23T00:36:48.316Z,101964.88
2023-11-23T00:41:47.849Z,101971.88
2023-11-23T00:46:44.654Z,101958.78
2023-11-23T00:51:41.451Z,101963.81
2023-11-23T00:56:38.378Z,101978.53
2023-11-23T01:01:35.943Z,101978.50
2023-11-23T01:06:35.737Z,101971.59
2023-11-23T01:11:32.577Z,101981.03
2023-11-23T01:16:29.355Z,101999.19
2023-11-23T01:21:26.807Z,101993.22
2023-11-23T01:26:23.573Z,101996.69
2023-11-23T01:31:20.335Z,101995.75
2023-11-23T01:36:18.902Z,101996.44
2023-11-23T01:41:17.470Z,101992.13
2023-11-23T01:46:14.716Z,102005.28
2023-11-23T01:51:13.930Z,102006.31
2023-11-23T01:56:11.825Z,102029.44
2023-11-23T02:01:09.412Z,102028.50
2023-11-23T02:06:06.539Z,102030.97
2023-11-23T02:11:03.521Z,102040.47
2023-11-23T02:16:00.296Z,102049.25
2023-11-23T02:20:57.753Z,102042.44
2023-11-23T02:25:55.160Z,102051.56
2023-11-23T02:30:52.456Z,102036.22
2023-11-23T02:35:49.152Z,102042.31
2023-11-23T02:40:45.982Z,102033.41
2023-11-23T02:45:43.604Z,102005.56
2023-11-23T02:50:40.637Z,102022.31
2023-11-23T02:55:37.331Z,102028.47
2023-11-23T03:00:34.590Z,102030.09
2023-11-23T03:05:32.041Z,102028.69
2023-11-23T03:10:28.765Z,102020.06
2023-11-23T03:15:25.419Z,102019.25
2023-11-23T03:20:22.502Z,102042.81
2023-11-23T03:25:20.012Z,102035.56
2023-11-23T03:30:16.816Z,102029.53
2023-11-23T03:35:13.628Z,102037.44
2023-11-23T03:40:13.433Z,102040.13
2023-11-23T03:45:11.261Z,102031.13
2023-11-23T03:50:08.311Z,102029.38
2023-11-23T03:55:05.408Z,102024.16
2023-11-23T04:00:03.755Z,102052.03
2023-11-23T04:05:02.684Z,102058.00
2023-11-23T04:09:59.304Z,102074.06
2023-11-23T04:14:57.939Z,102056.88
2023-11-23T04:19:55.486Z,102065.84
2023-11-23T04:24:53.018Z,102075.03
2023-11-23T04:29:49.745Z,102068.09
2023-11-23T04:34:47.326Z,102085.75
2023-11-23T04:39:44.311Z,102091.41
2023-11-23T04:44:43.296Z,102100.78
2023-11-23T04:49:40.187Z,102084.34
2023-11-23T04:54:37.000Z,102080.16
2023-11-23T04:59:34.251Z,102093.94
2023-11-23T05:04:32.228Z,102109.75
2023-11-23T05:09:29.330Z,102112.34
2023-11-23T05:14:26.175Z,102125.94
2023-11-23T05:19:35.372Z,102125.91
2023-11-23T05:24:37.334Z,102127.44
2023-11-23T05:29:34.009Z,102131.59
2023-11-23T05:34:30.921Z,102138.63
2023-11-23T05:39:28.039Z,102125.75
2023-11-23T05:44:25.706Z,102117.13
2023-11-23T05:49:22.452Z,102124.44
2023-11-23T05:54:19.288Z,102132.03
2023-11-23T05:59:16.008Z,102145.19
2023-11-23T06:04:15.019Z,102140.78
2023-11-23T06:09:12.018Z,102118.34
2023-11-23T06:14:08.939Z,102105.41
2023-11-23T06:19:11.246Z,102120.13
2023-11-23T06:24:09.420Z,102103.78
2023-11-23T06:29:06.207Z,102109.91
2023-11-23T06:34:02.912Z,102109.34
2023-11-23T06:38:59.941Z,102110.97
2023-11-23T06:44:00.262Z,102118.88
2023-11-23T06:48:57.256Z,102110.94
2023-11-23T06:53:54.084Z,102108.66
2023-11-23T06:58:51.861Z,102110.47
2023-11-23T07:03:52.405Z,102115.66
2023-11-23T07:08:49.217Z,102098.31
2023-11-23T07:13:46.473Z,102101.03
2023-11-23T07:18:43.830Z,102097.47
2023-11-23T07:23:50.117Z,102098.38
2023-11-23T07:28:47.048Z,102096.28
2023-11-23T07:33:45.310Z,102080.81
2023-11-23T07:38:52.541Z,102090.25
2023-11-23T07:43:58.317Z,102080.03
2023-11-23T07:48:55.553Z,102079.00
2023-11-23T07:53:53.009Z,102074.97
2023-11-23T07:58:51.642Z,102054.78
2023-11-23T08:03:54.510Z,102061.69
2023-11-23T08:08:51.513Z,102062.84
2023-11-23T08:14:00.904Z,102056.91
2023-11-23T08:18:57.976Z,102069.03
2023-11-23T08:23:55.502Z,102068.16
2023-11-23T08:28:52.296Z,102072.59
2023-11-23T08:33:51.452Z,102091.81
2023-11-23T08:38:50.986Z,102068.41
2023-11-23T08:43:48.525Z,102065.81
2023-11-23T08:48:45.664Z,102056.22
2023-11-23T08:53:43.229Z,102058.88
2023-11-23T08:58:42.384Z,102054.47
2023-11-23T09:03:39.454Z,102035.34
2023-11-23T09:08:36.399Z,102024.94
2023-11-23T09:13:36.467Z,102030.06
2023-11-23T09:18:33.433Z,102012.75
2023-11-23T09:23:31.300Z,102000.59
2023-11-23T09:28:28.157Z,102004.06
2023-11-23T09:33:27.727Z,101992.78
2023-11-23T09:38:28.524Z,101975.41
2023-11-23T09:43:25.456Z,101959.72
2023-11-23T09:48:22.968Z,101951.00
2023-11-23T09:53:20.844Z,101924.09
2023-11-23T09:58:17.780Z,101918.88
2023-11-23T10:03:17.574Z,101909.31
2023-11-23T10:08:18.356Z,101897.16
2023-11-23T10:13:15.955Z,101876.25
2023-11-23T10:18:13.407Z,101869.19
2023-11-23T10:23:10.452Z,101861.28
2023-11-23T10:28:07.928Z,101865.59
2023-11-23T10:33:06.198Z,101859.38
2023-11-23T10:38:03.347Z,101855.88
2023-11-23T10:43:01.154Z,101854.09
2023-11-23T10:48:04.163Z,101845.53
2023-11-23T10:53:08.797Z,101837.78
2023-11-23T10:58:08.121Z,101825.69
2023-11-23T11:03:09.462Z,101827.50
2023-11-23T11:08:32.425Z,101817.06
2023-11-23T11:13:38.297Z,101825.69
2023-11-23T11:18:39.574Z,101812.63
2023-11-23T11:23:46.378Z,101802.09
2023-11-23T11:29:07.230Z,101804.53
2023-11-23T11:34:08.008Z,101786.50
2023-11-23T11:39:20.240Z,101782.19
2023-11-23T11:44:21.010Z,101775.31
2023-11-23T11:49:19.174Z,101772.69
2023-11-23T11:54:19.069Z,101757.97
2023-11-23T11:59:17.889Z,101747.56
2023-11-23T12:04:20.551Z,101733.59
2023-11-23T12:09:21.712Z,101725.72
2023-11-23T12:14:22.907Z,101719.66
2023-11-23T12:19:25.792Z,101720.47
2023-11-23T12:24:26.547Z,101706.66
2023-11-23T12:29:23.744Z,101698.81
2023-11-23T12:34:44.791Z,101704.03
2023-11-23T12:39:43.016Z,101697.97
2023-11-23T12:44:42.813Z,101691.06
2023-11-23T12:49:41.265Z,101687.47
2023-11-23T12:54:38.301Z,101671.03
2023-11-23T12:59:40.412Z,101660.59
2023-11-23T13:04:38.001Z,101656.25
2023-11-23T13:09:35.346Z,101655.25
2023-11-23T13:14:32.634Z,101655.25
2023-11-23T13:19:43.102Z,101648.38
2023-11-23T13:24:46.453Z,101615.41
2023-11-23T13:29:54.209Z,101620.53
2023-11-23T13:34:51.847Z,101618.69
2023-11-23T13:39:48.846Z,101604.78
2023-11-23T13:44:52.125Z,101578.03
2023-11-23T13:49:48.849Z,101591.75
2023-11-23T13:54:48.962Z,101588.22
2023-11-23T13:59:49.940Z,101558.66
2023-11-23T14:04:49.352Z,101576.03
2023-11-23T14:09:47.999Z,101572.63
2023-11-23T14:14:45.011Z,101564.69
2023-11-23T14:19:45.332Z,101566.28
2023-11-23T14:24:42.289Z,101558.66
2023-11-23T14:29:42.795Z,101558.53
2023-11-23T14:34:47.125Z,101558.50
2023-11-23T14:39:46.864Z,101537.78
2023-11-23T14:44:47.462Z,101540.19
2023-11-23T14:49:44.360Z,101534.22
2023-11-23T14:54:48.575Z,101530.84
2023-11-23T14:59:47.154Z,101515.13
2023-11-23T15:04:43.921Z,101520.25
2023-11-23T15:09:41.721Z,101516.00
2023-11-23T15:14:38.544Z,101509.84
2023-11-23T15:19:37.907Z,101502.00
2023-11-23T15:24:35.013Z,101504.63
2023-11-23T15:29:33.017Z,101471.72
2023-11-23T15:34:30.452Z,101495.22
2023-11-23T15:39:30.691Z,101491.72
2023-11-23T15:44:28.159Z,101477.81
2023-11-23T15:49:25.512Z,101470.78
2023-11-23T15:54:22.354Z,101460.41
2023-11-23T15:59:19.956Z,101463.94
2023-11-23T16:04:16.955Z,101461.41
2023-11-23T16:09:13.879Z,101456.13
2023-11-23T16:14:10.952Z,101459.63
2023-11-23T16:19:16.768Z,101448.22
2023-11-23T16:24:13.609Z,101450.94
2023-11-23T16:29:11.882Z,101447.41
2023-11-23T16:34:09.178Z,101451.75
2023-11-23T16:39:08.991Z,101442.97
2023-11-23T16:44:07.054Z,101449.16
2023-11-23T16:49:05.637Z,101445.59
2023-11-23T16:54:04.017Z,101440.22
2023-11-23T16:59:02.814Z,101420.53
2023-11-23T17:03:59.555Z,101417.78
2023-11-23T17:08:56.312Z,101407.47
2023-11-23T17:13:52.983Z,101397.16
2023-11-23T17:18:50.415Z,101387.50
2023-11-23T17:23:52.487Z,101375.22
2023-11-23T17:28:49.249Z,101377.06
2023-11-23T17:33:47.627Z,101340.59
2023-11-23T17:38:45.255Z,101351.97
2023-11-23T17:43:42.762Z,101343.88
2023-11-23T17:48:39.583Z,101339.66
2023-11-23T17:53:37.260Z,101330.97
2023-11-23T17:58:34.767Z,101313.41
2023-11-23T18:03:31.701Z,101311.81
2023-11-23T18:08:28.354Z,101294.47
2023-11-23T18:13:25.375Z,101286.75
2023-11-23T18:18:24.550Z,101278.66
2023-11-23T18:23:21.715Z,101246.69
2023-11-23T18:28:23.058Z,101252.47
2023-11-23T18:33:22.525Z,101251.72
2023-11-23T18:38:20.156Z,101250.00
2023-11-23T18:43:16.999Z,101243.03
2023-11-23T18:48:16.015Z,101247.25
2023-11-23T18:53:12.727Z,101231.75
2023-11-23T18:58:10.037Z,101244.09
2023-11-23T19:03:08.945Z,101246.50
2023-11-23T19:08:05.546Z,101223.88
2023-11-23T19:13:06.684Z,101214.34
2023-11-23T19:18:05.088Z,101210.78
2023-11-23T19:23:02.957Z,101208.16
2023-11-23T19:28:00.040Z,101199.41
2023-11-23T19:32:56.981Z,101191.84
2023-11-23T19:37:54.693Z,101179.59
2023-11-23T19:42:51.682Z,101159.47
2023-11-23T19:47:50.134Z,101156.94
2023-11-23T19:52:47.300Z,101142.66
2023-11-23T19:57:47.510Z,101135.13
2023-11-23T20:02:44.551Z,101120.25
2023-11-23T20:07:41.610Z,101116.72
2023-11-23T20:12:39.925Z,101106.50
2023-11-23T20:17:37.701Z,101096.06
2023-11-23T20:22:34.568Z,101090.53
2023-11-23T20:27:31.446Z,101076.75
2023-11-23T20:32:28.181Z,101059.44
2023-11-23T20:37:25.651Z,101055.75
2023-11-23T20:42:22.302Z,101042.84
2023-11-23T20:47:19.434Z,101034.13
2023-11-23T20:52:16.567Z,101021.06
2023-11-23T20:57:14.825Z,101005.34
2023-11-23T21:02:12.082Z,101004.22
2023-11-23T21:07:09.191Z,101000.91
2023-11-23T21:12:08.075Z,100987.72
2023-11-23T21:17:11.083Z,100982.31
2023-11-23T21:22:08.502Z,100975.13
2023-11-23T21:27:07.574Z,100966.59
2023-11-23T21:32:04.704Z,100931.13
2023-11-23T21:37:02.997Z,100946.63
2023-11-23T21:42:00.761Z,100940.38
2023-11-23T21:46:57.449Z,100931.66
2023-11-23T21:51:54.833Z,100931.00
2023-11-23T21:56:54.191Z,100930.28
2023-11-23T22:01:51.154Z,100909.91
2023-11-23T22:06:47.862Z,100897.16
2023-11-23T22:11:44.590Z,100884.06
2023-11-23T22:16:42.417Z,100862.03
2023-11-23T22:21:39.433Z,100856.06
2023-11-23T22:26:36.480Z,100834.50
2023-11-23T22:31:33.294Z,100834.50
2023-11-23T22:36:31.099Z,100826.75
2023-11-23T22:41:28.238Z,100825.44
2023-11-23T22:46:25.326Z,100806.31
2023-11-23T22:51:22.013Z,100788.84
2023-11-23T22:56:19.495Z,100791.53
2023-11-23T23:01:16.562Z,100782.91
2023-11-23T23:06:13.211Z,100770.75
2023-11-23T23:11:10.671Z,100756.41
2023-11-23T23:16:08.051Z,100754.91
2023-11-23T23:21:05.479Z,100741.13
2023-11-23T23:26:02.957Z,100727.78
2023-11-23T23:31:00.036Z,100725.00
2023-11-23T23:35:59.514Z,100718.41
2023-11-23T23:40:56.069Z,100713.94
2023-11-23T23:45:52.760Z,100709.47
2023-11-23T23:50:50.246Z,100711.78
2023-11-23T23:55:49.156Z,100700.47
